Time;durP1;ratioP1;P1;durP2;ratioP2;P2;SDS_P1;SDS_P2;PMS_P1;PMS_P2;Temp;Humidity;BMP_temperature;BMP_pressure;BME280_temperature;BME280_humidity;BME280_pressure;Samples;Min_cycle;Max_cycle;Signal;HPM_P1;HPM_P2
2021/07/29 00:00:30;;;;;;;4.78;2.60;;;15.60;99.90;;;;;;5065919;28;20127;-79
2021/07/29 00:02:56;;;;;;;6.95;2.75;;;15.60;99.90;;;;;;5064816;28;20426;-79
2021/07/29 00:05:22;;;;;;;4.35;2.28;;;15.60;99.90;;;;;;5066016;28;20055;-80
2021/07/29 00:07:51;;;;;;;4.82;2.45;;;15.50;99.90;;;;;;5066496;28;20796;-78
2021/07/29 00:10:17;;;;;;;5.60;3.35;;;15.50;99.90;;;;;;5067096;28;20049;-78
2021/07/29 00:12:43;;;;;;;6.63;3.03;;;15.50;99.90;;;;;;5066736;28;20041;-79
2021/07/29 00:15:14;;;;;;;4.10;2.60;;;15.40;99.90;;;;;;5065145;28;20064;-80
2021/07/29 00:20:25;;;;;;;8.40;2.67;;;15.40;99.90;;;;;;5067232;28;20044;-79
2021/07/29 00:22:53;;;;;;;4.25;2.60;;;15.40;99.90;;;;;;5067040;28;20032;-78
2021/07/29 00:25:22;;;;;;;5.15;2.72;;;15.40;99.90;;;;;;5067009;28;20036;-79
2021/07/29 00:27:49;;;;;;;6.70;2.65;;;15.40;99.90;;;;;;5064545;28;20446;-80
2021/07/29 00:30:17;;;;;;;4.47;2.72;;;15.40;99.90;;;;;;5065814;28;20117;-79
2021/07/29 00:32:44;;;;;;;9.80;2.60;;;15.30;99.90;;;;;;5065896;28;20063;-79
2021/07/29 00:35:15;;;;;;;5.22;2.58;;;15.30;99.90;;;;;;5064300;28;20071;-79
2021/07/29 00:37:41;;;;;;;6.97;2.95;;;15.30;99.90;;;;;;5066320;28;20039;-78
2021/07/29 00:40:07;;;;;;;7.65;2.97;;;15.40;99.90;;;;;;5068444;28;20111;-79
2021/07/29 00:42:33;;;;;;;7.10;2.90;;;15.30;99.90;;;;;;5066392;28;20059;-81
2021/07/29 00:44:58;;;;;;;5.53;2.20;;;15.30;99.90;;;;;;5066401;28;20032;-78
2021/07/29 00:47:25;;;;;;;6.05;2.85;;;15.30;99.90;;;;;;5065307;28;20508;-78
2021/07/29 00:49:50;;;;;;;3.55;2.10;;;15.30;99.90;;;;;;5065601;28;20036;-78
2021/07/29 00:52:20;;;;;;;5.13;2.60;;;15.30;99.90;;;;;;5065389;28;20406;-78
2021/07/29 00:54:48;;;;;;;5.55;3.22;;;15.30;99.90;;;;;;5064297;28;20415;-78
2021/07/29 00:57:15;;;;;;;5.40;2.10;;;15.30;99.90;;;;;;5066313;28;20048;-79
2021/07/29 00:59:41;;;;;;;4.38;2.50;;;15.30;99.90;;;;;;5068820;28;20514;-78
2021/07/29 01:02:07;;;;;;;6.85;2.75;;;15.30;99.90;;;;;;5068626;28;20047;-79
2021/07/29 01:04:33;;;;;;;6.47;2.60;;;15.30;99.90;;;;;;5069654;28;20812;-78
2021/07/29 01:06:58;;;;;;;4.60;2.67;;;15.30;99.90;;;;;;5070838;28;20079;-78
2021/07/29 01:09:24;;;;;;;6.82;3.15;;;15.40;99.90;;;;;;5068854;28;20040;-78
2021/07/29 01:11:51;;;;;;;8.38;2.35;;;15.30;99.90;;;;;;5070384;28;20106;-79
2021/07/29 01:14:17;;;;;;;7.82;2.58;;;15.30;99.90;;;;;;5068604;28;20467;-79
2021/07/29 01:16:43;;;;;;;4.53;2.28;;;15.40;99.90;;;;;;5069261;28;20120;-79
2021/07/29 01:19:10;;;;;;;3.72;2.78;;;15.40;99.90;;;;;;5070021;28;20114;-79
2021/07/29 01:21:36;;;;;;;6.75;3.08;;;15.40;99.90;;;;;;5071205;28;20068;-79
2021/07/29 01:24:03;;;;;;;7.18;2.65;;;15.40;99.90;;;;;;5070567;28;20037;-79
2021/07/29 01:26:29;;;;;;;7.25;2.65;;;15.40;99.90;;;;;;5070157;28;20143;-80
2021/07/29 01:28:59;;;;;;;6.97;2.05;;;15.40;99.90;;;;;;5069506;28;20722;-82
2021/07/29 01:31:28;;;;;;;4.50;2.40;;;15.40;99.90;;;;;;5067636;28;20060;-79
2021/07/29 01:33:58;;;;;;;5.25;1.98;;;15.40;99.90;;;;;;5067807;28;20495;-79
2021/07/29 01:36:24;;;;;;;7.88;2.67;;;15.40;99.90;;;;;;5068148;28;20040;-79
2021/07/29 01:38:50;;;;;;;10.07;2.72;;;15.30;99.90;;;;;;5069136;28;20044;-80
2021/07/29 01:41:15;;;;;;;5.45;2.00;;;15.30;99.90;;;;;;5069582;28;20733;-80
2021/07/29 01:43:41;;;;;;;6.57;2.88;;;15.30;99.90;;;;;;5067522;28;20611;-79
2021/07/29 01:46:07;;;;;;;5.70;2.67;;;15.30;99.90;;;;;;5069127;28;20067;-79
2021/07/29 01:48:34;;;;;;;5.28;2.40;;;15.30;99.90;;;;;;5069583;28;20405;-80
2021/07/29 01:51:00;;;;;;;12.10;3.05;;;15.20;99.90;;;;;;5066608;28;20044;-78
2021/07/29 01:53:26;;;;;;;4.15;2.33;;;15.30;99.90;;;;;;5068142;28;20044;-79
2021/07/29 01:55:52;;;;;;;6.32;2.15;;;15.30;99.90;;;;;;5068594;28;20035;-80
2021/07/29 01:58:18;;;;;;;5.97;2.38;;;15.30;99.90;;;;;;5070767;28;20739;-81
2021/07/29 02:00:46;;;;;;;8.68;2.92;;;15.20;99.90;;;;;;5070730;28;20039;-81
2021/07/29 02:03:13;;;;;;;6.28;2.13;;;15.30;99.90;;;;;;5069686;28;20039;-81
2021/07/29 02:05:38;;;;;;;7.53;2.35;;;15.20;99.90;;;;;;5067442;28;20040;-81
2021/07/29 02:08:05;;;;;;;7.35;2.67;;;15.30;99.90;;;;;;5070016;28;20048;-80
2021/07/29 02:10:31;;;;;;;7.05;2.05;;;15.30;99.90;;;;;;5070142;28;20159;-80
2021/07/29 02:12:59;;;;;;;5.82;2.30;;;15.30;99.90;;;;;;5067654;28;20052;-80
2021/07/29 02:15:25;;;;;;;8.10;3.17;;;15.30;99.90;;;;;;5069217;28;20041;-78
2021/07/29 02:17:57;;;;;;;5.05;2.60;;;15.30;99.90;;;;;;5065758;28;20390;-78
2021/07/29 02:20:23;;;;;;;5.45;1.23;;;15.30;99.90;;;;;;5071186;28;20041;-77
2021/07/29 02:22:50;;;;;;;1.10;0.57;;;15.30;99.90;;;;;;5068052;28;20033;-77
2021/07/29 02:25:15;;;;;;;3.60;0.50;;;15.10;99.90;;;;;;5070086;28;20043;-77
2021/07/29 02:27:41;;;;;;;2.42;0.30;;;15.00;99.90;;;;;;5068788;28;20033;-77
2021/07/29 02:30:08;;;;;;;3.22;0.30;;;14.90;99.90;;;;;;5066921;28;20066;-76
2021/07/29 02:32:34;;;;;;;1.63;0.22;;;14.80;99.90;;;;;;5069654;28;20135;-76
2021/07/29 02:34:59;;;;;;;1.85;0.30;;;14.70;99.90;;;;;;5068289;28;20139;-75
2021/07/29 02:37:25;;;;;;;0.88;0.30;;;14.60;99.90;;;;;;5070529;28;20040;-76
2021/07/29 02:39:50;;;;;;;1.05;0.20;;;14.50;99.90;;;;;;5069141;28;20044;-76
2021/07/29 02:42:16;;;;;;;2.58;0.40;;;14.40;99.90;;;;;;5068488;28;20083;-76
2021/07/29 02:44:42;;;;;;;1.13;0.20;;;14.30;99.90;;;;;;5069707;28;20037;-75
2021/07/29 02:47:08;;;;;;;4.97;0.28;;;14.20;99.90;;;;;;5070088;28;20072;-76
2021/07/29 02:49:35;;;;;;;1.05;0.25;;;14.10;99.90;;;;;;5067878;28;20090;-76
2021/07/29 02:52:06;;;;;;;2.28;0.47;;;14.00;99.90;;;;;;5068580;28;20043;-77
2021/07/29 02:54:32;;;;;;;3.15;0.30;;;13.90;99.90;;;;;;5068214;28;20029;-77
2021/07/29 02:56:57;;;;;;;0.82;0.57;;;13.90;99.90;;;;;;5065600;28;20060;-76
2021/07/29 02:59:23;;;;;;;0.85;0.25;;;13.90;99.90;;;;;;5069444;28;20432;-76
2021/07/29 03:01:48;;;;;;;1.45;0.20;;;13.80;99.90;;;;;;5067535;28;20048;-76
2021/07/29 03:04:14;;;;;;;1.95;0.28;;;13.80;99.90;;;;;;5066780;28;20036;-76
2021/07/29 03:06:40;;;;;;;2.97;0.22;;;13.80;99.90;;;;;;5068868;28;20029;-76
2021/07/29 03:09:06;;;;;;;1.17;0.30;;;13.70;99.90;;;;;;5067690;28;20135;-76
2021/07/29 03:11:31;;;;;;;2.38;0.30;;;13.70;99.90;;;;;;5069262;28;20617;-76
2021/07/29 03:13:58;;;;;;;0.95;0.20;;;13.70;99.90;;;;;;5068568;28;20374;-76
2021/07/29 03:16:24;;;;;;;2.35;0.40;;;13.70;99.90;;;;;;5067035;28;20079;-76
2021/07/29 03:18:49;;;;;;;3.00;1.50;;;13.60;99.90;;;;;;5067844;28;20052;-77
2021/07/29 03:21:15;;;;;;;0.70;0.20;;;13.60;99.90;;;;;;5066756;28;20036;-76
2021/07/29 03:23:41;;;;;;;1.48;0.25;;;13.60;99.90;;;;;;5068192;28;20039;-76
2021/07/29 03:26:06;;;;;;;1.80;0.30;;;13.60;99.90;;;;;;5067289;28;20139;-76
2021/07/29 03:28:33;;;;;;;1.90;0.47;;;13.60;99.90;;;;;;5067786;28;20044;-76
2021/07/29 03:30:59;;;;;;;1.27;0.50;;;13.60;99.90;;;;;;5069518;28;20209;-76
2021/07/29 03:33:25;;;;;;;1.45;0.52;;;13.50;99.90;;;;;;5069304;28;20557;-76
2021/07/29 03:35:51;;;;;;;3.22;0.50;;;13.50;99.90;;;;;;5067939;28;20036;-76
2021/07/29 03:38:16;;;;;;;1.20;0.38;;;13.50;99.90;;;;;;5067819;28;20056;-76
2021/07/29 03:40:42;;;;;;;2.10;0.57;;;13.50;99.90;;;;;;5068267;28;20482;-76
2021/07/29 03:43:08;;;;;;;2.28;1.00;;;13.40;99.90;;;;;;5066801;28;20042;-76
2021/07/29 03:45:37;;;;;;;2.95;0.88;;;13.50;99.90;;;;;;5065100;28;20041;-76
2021/07/29 03:48:04;;;;;;;2.13;0.90;;;13.40;99.90;;;;;;5066690;28;20038;-76
2021/07/29 03:50:30;;;;;;;4.18;1.13;;;13.50;99.90;;;;;;5067537;28;20110;-77
2021/07/29 03:52:57;;;;;;;7.30;1.42;;;13.40;99.90;;;;;;5066562;28;20041;-76
2021/07/29 03:55:23;;;;;;;3.53;0.93;;;13.40;99.90;;;;;;5068974;28;20113;-77
2021/07/29 03:57:49;;;;;;;2.60;0.90;;;13.50;99.90;;;;;;5067735;28;20058;-77
2021/07/29 04:00:20;;;;;;;4.47;1.15;;;13.40;99.90;;;;;;5066887;28;20513;-77
2021/07/29 04:02:46;;;;;;;6.60;1.40;;;13.50;99.90;;;;;;5066951;28;20040;-76
2021/07/29 04:05:11;;;;;;;12.73;2.33;;;13.50;99.90;;;;;;5066695;28;20062;-76
2021/07/29 04:07:37;;;;;;;5.72;1.42;;;13.50;99.90;;;;;;5066577;28;20037;-76
2021/07/29 04:10:04;;;;;;;5.15;1.40;;;13.50;99.90;;;;;;5067649;28;20044;-77
2021/07/29 04:12:33;;;;;;;7.55;1.60;;;13.50;99.90;;;;;;5066227;28;20115;-78
2021/07/29 04:14:59;;;;;;;5.75;1.77;;;13.50;99.90;;;;;;5067187;28;20112;-78
2021/07/29 04:17:25;;;;;;;6.15;1.55;;;13.50;99.90;;;;;;5066674;28;20120;-77
2021/07/29 04:19:51;;;;;;;6.10;1.42;;;13.60;99.90;;;;;;5068431;28;20068;-77
2021/07/29 04:22:17;;;;;;;7.28;1.92;;;13.50;99.90;;;;;;5068500;28;20052;-77
2021/07/29 04:24:43;;;;;;;6.32;1.98;;;13.60;99.90;;;;;;5067139;28;20039;-76
2021/07/29 04:27:13;;;;;;;4.93;1.45;;;13.70;99.90;;;;;;5068329;28;20040;-76
2021/07/29 04:29:51;;;;;;;7.30;1.50;;;13.80;99.90;;;;;;5064947;28;20500;-77
2021/07/29 04:32:22;;;;;;;9.40;2.60;;;13.90;99.90;;;;;;5068224;28;20170;-77
2021/07/29 04:34:49;;;;;;;5.95;1.92;;;14.00;99.90;;;;;;5066067;28;20176;-76
2021/07/29 04:37:17;;;;;;;4.18;1.40;;;14.00;99.90;;;;;;5067359;28;20096;-77
2021/07/29 04:39:44;;;;;;;4.40;1.85;;;14.00;99.90;;;;;;5062676;28;20119;-77
2021/07/29 04:42:11;;;;;;;10.02;2.08;;;14.00;99.90;;;;;;5063286;28;20029;-77
2021/07/29 04:44:37;;;;;;;6.00;2.00;;;14.00;99.90;;;;;;5063712;28;20604;-77
2021/07/29 04:47:04;;;;;;;7.47;2.08;;;14.00;99.90;;;;;;5063675;28;20040;-76
2021/07/29 04:49:34;;;;;;;4.75;1.73;;;14.00;99.90;;;;;;5064787;28;20041;-77
2021/07/29 04:51:59;;;;;;;5.15;1.52;;;14.10;99.90;;;;;;5062964;28;20119;-78
2021/07/29 04:54:25;;;;;;;4.68;1.55;;;14.10;99.90;;;;;;5062958;28;20245;-77
2021/07/29 04:56:51;;;;;;;8.63;2.40;;;14.10;99.90;;;;;;5064446;28;20028;-77
2021/07/29 04:59:21;;;;;;;8.30;2.13;;;14.20;99.90;;;;;;5064574;28;20112;-78
2021/07/29 05:01:47;;;;;;;11.15;2.25;;;14.30;99.90;;;;;;5063420;28;20174;-77
2021/07/29 05:04:12;;;;;;;5.80;2.20;;;14.40;99.90;;;;;;5062938;28;20123;-77
2021/07/29 05:06:38;;;;;;;7.57;2.15;;;14.50;99.90;;;;;;5063522;28;20466;-77
2021/07/29 05:09:04;;;;;;;7.68;1.98;;;14.50;99.90;;;;;;5062232;28;20041;-78
2021/07/29 05:11:37;;;;;;;7.60;2.00;;;14.60;99.90;;;;;;5062702;28;20124;-78
2021/07/29 05:14:03;;;;;;;7.18;1.90;;;14.70;99.90;;;;;;5063307;28;20678;-78
2021/07/29 05:16:43;;;;;;;4.15;1.45;;;15.00;99.90;;;;;;5061371;28;20125;-78
2021/07/29 05:19:09;;;;;;;8.05;1.60;;;15.70;99.90;;;;;;5062992;28;20053;-79
2021/07/29 05:21:35;;;;;;;7.80;1.70;;;17.10;99.90;;;;;;5063565;28;20066;-79
2021/07/29 05:24:05;;;;;;;5.32;1.63;;;18.50;99.90;;;;;;5061810;28;20041;-80
2021/07/29 05:26:31;;;;;;;5.93;1.55;;;19.90;99.90;;;;;;5064223;28;20513;-80
2021/07/29 05:28:57;;;;;;;7.03;1.52;;;20.90;99.90;;;;;;5062887;28;20483;-80
2021/07/29 05:31:23;;;;;;;7.55;2.08;;;21.80;99.90;;;;;;5061508;28;20043;-80
2021/07/29 05:33:49;;;;;;;4.35;0.93;;;22.80;98.40;;;;;;5071983;28;20036;-82
2021/07/29 05:36:14;;;;;;;4.57;1.48;;;23.60;95.20;;;;;;5063377;28;20083;-82
2021/07/29 05:38:40;;;;;;;4.82;1.90;;;24.40;93.90;;;;;;5063503;28;20033;-81
2021/07/29 05:41:09;;;;;;;6.47;1.33;;;25.10;90.70;;;;;;5063020;28;20123;-84
2021/07/29 05:43:37;;;;;;;7.20;1.55;;;25.70;84.10;;;;;;5061745;28;20036;-82
2021/07/29 05:46:07;;;;;;;6.90;1.63;;;26.10;80.60;;;;;;5066536;28;20028;-83
2021/07/29 05:48:33;;;;;;;6.57;1.35;;;26.60;72.40;;;;;;5065907;28;20048;-84
2021/07/29 05:51:00;;;;;;;6.35;1.90;;;26.90;72.70;;;;;;5067047;28;20501;-82
2021/07/29 05:53:26;;;;;;;3.42;0.95;;;26.70;68.00;;;;;;5067602;28;20402;-85
2021/07/29 05:55:54;;;;;;;4.80;1.90;;;27.60;68.30;;;;;;5066980;28;20044;-83
2021/07/29 05:58:20;;;;;;;5.20;1.40;;;28.10;62.30;;;;;;5066854;28;20554;-83
2021/07/29 06:00:45;;;;;;;5.22;1.63;;;28.10;61.10;;;;;;5067227;28;20131;-85
2021/07/29 06:03:12;;;;;;;6.63;1.30;;;28.20;60.30;;;;;;5065402;28;20040;-84
2021/07/29 06:05:38;;;;;;;4.82;1.20;;;28.20;60.40;;;;;;5063351;28;20089;-87
2021/07/29 06:08:04;;;;;;;10.63;1.20;;;27.70;61.10;;;;;;5064750;28;20498;-85
2021/07/29 06:10:29;;;;;;;7.32;1.15;;;26.60;62.30;;;;;;5067655;28;20040;-82
2021/07/29 06:12:55;;;;;;;6.40;1.33;;;25.70;64.40;;;;;;5063619;28;20041;-73
2021/07/29 06:15:21;;;;;;;7.72;1.70;;;25.10;69.00;;;;;;5063731;28;20036;-84
2021/07/29 06:17:52;;;;;;;8.40;1.58;;;24.50;73.20;;;;;;5064032;28;20036;-84
2021/07/29 06:20:18;;;;;;;7.18;1.55;;;24.10;76.70;;;;;;5063644;28;20044;-85
2021/07/29 06:22:44;;;;;;;6.13;1.85;;;23.70;81.30;;;;;;5065575;28;20040;-85
2021/07/29 06:25:12;;;;;;;4.40;1.42;;;23.40;84.20;;;;;;5066238;28;20512;-87
2021/07/29 06:27:38;;;;;;;6.93;1.13;;;23.10;88.50;;;;;;5062098;28;20106;-85
2021/07/29 06:30:07;;;;;;;8.68;1.75;;;22.80;90.50;;;;;;5065628;28;20398;-86
2021/07/29 06:32:33;;;;;;;7.18;1.98;;;22.60;91.70;;;;;;5066639;28;20036;-87
2021/07/29 06:34:58;;;;;;;7.60;2.13;;;22.30;92.70;;;;;;5066520;28;20056;-87
2021/07/29 06:37:24;;;;;;;11.63;1.73;;;22.30;93.60;;;;;;5068847;28;20051;-87
2021/07/29 06:39:50;;;;;;;6.25;1.40;;;22.00;94.80;;;;;;5068831;28;20094;-68
2021/07/29 06:42:16;;;;;;;7.90;2.20;;;22.00;95.70;;;;;;5063242;28;20048;-69
2021/07/29 06:44:42;;;;;;;8.60;2.00;;;21.90;95.50;;;;;;5063543;28;20040;-70
2021/07/29 06:47:21;;;;;;;10.00;1.90;;;21.90;95.90;;;;;;5063192;28;20052;-70
2021/07/29 06:49:47;;;;;;;12.75;2.58;;;21.80;96.20;;;;;;5062463;28;20135;-70
2021/07/29 06:52:14;;;;;;;7.82;1.88;;;21.80;96.30;;;;;;5061583;28;20032;-71
2021/07/29 06:54:40;;;;;;;11.98;1.85;;;21.90;96.60;;;;;;5059772;28;20033;-72
2021/07/29 06:57:07;;;;;;;6.63;2.17;;;21.80;96.90;;;;;;5062624;28;20111;-71
2021/07/29 06:59:33;;;;;;;9.30;2.20;;;21.60;96.70;;;;;;5063273;28;20057;-71
2021/07/29 07:01:59;;;;;;;9.23;2.25;;;21.50;97.50;;;;;;5060476;28;20489;-71
2021/07/29 07:04:25;;;;;;;12.75;2.15;;;21.50;97.50;;;;;;5063495;28;20055;-71
2021/07/29 07:06:51;;;;;;;7.13;1.83;;;21.40;97.60;;;;;;5062134;28;20489;-71
2021/07/29 07:09:17;;;;;;;10.00;2.45;;;21.30;98.10;;;;;;5062180;28;20060;-67
2021/07/29 07:11:42;;;;;;;10.63;2.05;;;21.10;98.50;;;;;;5063914;28;20048;-69
2021/07/29 07:14:09;;;;;;;10.18;2.08;;;21.20;98.80;;;;;;5058480;28;20659;-70
2021/07/29 07:16:35;;;;;;;9.07;1.63;;;21.20;98.90;;;;;;5063341;28;20687;-71
2021/07/29 07:19:01;;;;;;;13.57;3.05;;;21.30;98.70;;;;;;5060664;28;20123;-70
2021/07/29 07:21:27;;;;;;;7.53;2.20;;;21.20;98.50;;;;;;5064236;28;20037;-70
2021/07/29 07:23:52;;;;;;;13.15;2.10;;;21.00;98.80;;;;;;5060800;28;20540;-70
2021/07/29 07:26:20;;;;;;;9.38;1.83;;;21.10;98.80;;;;;;5059681;28;20055;-70
2021/07/29 07:28:48;;;;;;;4.35;1.38;;;21.00;99.30;;;;;;5058720;28;20835;-70
2021/07/29 07:31:14;;;;;;;11.77;1.63;;;20.90;97.50;;;;;;5064195;28;20029;-70
2021/07/29 07:33:40;;;;;;;7.68;1.52;;;20.80;98.30;;;;;;5062278;28;20119;-82
2021/07/29 07:36:05;;;;;;;9.90;1.67;;;20.60;98.80;;;;;;5062172;28;20522;-82
2021/07/29 07:38:31;;;;;;;9.88;1.40;;;20.40;99.30;;;;;;5059409;28;20035;-82
2021/07/29 07:41:02;;;;;;;7.28;1.50;;;20.20;99.30;;;;;;5056287;28;20064;-82
2021/07/29 07:43:28;;;;;;;8.55;2.00;;;19.90;99.70;;;;;;5045036;28;20155;-81
2021/07/29 07:45:53;;;;;;;5.70;1.23;;;19.80;99.90;;;;;;5047872;28;20045;-81
2021/07/29 07:48:19;;;;;;;11.13;1.42;;;20.00;99.90;;;;;;5048702;28;20044;-82
2021/07/29 07:50:45;;;;;;;9.90;1.70;;;19.90;99.10;;;;;;5050441;28;21061;-82
2021/07/29 07:53:11;;;;;;;6.43;1.67;;;20.00;99.90;;;;;;5058619;28;20127;-84
2021/07/29 07:55:36;;;;;;;9.65;1.70;;;20.10;99.80;;;;;;5062028;28;20044;-83
2021/07/29 07:58:02;;;;;;;12.85;1.88;;;20.30;99.60;;;;;;5061494;28;20510;-81
2021/07/29 08:00:28;;;;;;;8.10;1.20;;;20.40;99.00;;;;;;5061992;28;20037;-82
2021/07/29 08:02:54;;;;;;;6.65;1.88;;;20.50;99.00;;;;;;5062281;28;20048;-81
2021/07/29 08:05:20;;;;;;;14.77;1.98;;;20.60;98.70;;;;;;5061498;28;20040;-81
2021/07/29 08:07:45;;;;;;;11.60;1.75;;;20.60;98.50;;;;;;5061388;28;20052;-83
2021/07/29 08:10:12;;;;;;;10.15;2.08;;;20.60;98.70;;;;;;5061501;28;20379;-85
2021/07/29 08:12:37;;;;;;;11.65;2.22;;;20.70;99.20;;;;;;5061444;28;20044;-70
2021/07/29 08:15:03;;;;;;;9.18;1.92;;;20.90;99.40;;;;;;5060638;28;20068;-81
2021/07/29 08:17:29;;;;;;;7.38;2.28;;;20.90;99.10;;;;;;5061726;28;20115;-82
2021/07/29 08:19:55;;;;;;;9.30;1.80;;;20.70;99.50;;;;;;5061826;28;20124;-81
2021/07/29 08:22:21;;;;;;;10.65;2.25;;;20.90;99.70;;;;;;5062913;28;20056;-82
2021/07/29 08:24:47;;;;;;;6.43;1.40;;;21.10;98.50;;;;;;5061371;28;20033;-77
2021/07/29 08:27:12;;;;;;;8.07;1.48;;;21.00;97.00;;;;;;5061155;28;20548;-70
2021/07/29 08:29:38;;;;;;;9.05;2.05;;;20.90;96.80;;;;;;5061955;28;20063;-71
2021/07/29 08:32:04;;;;;;;7.43;2.78;;;21.10;97.90;;;;;;5061887;28;20482;-69
2021/07/29 08:34:30;;;;;;;8.25;1.80;;;21.20;98.90;;;;;;5061046;28;20105;-70
2021/07/29 08:36:55;;;;;;;11.85;2.35;;;21.30;98.20;;;;;;5059002;28;20158;-69
2021/07/29 08:39:21;;;;;;;10.90;1.88;;;21.40;97.40;;;;;;5061310;28;20063;-69
2021/07/29 08:41:47;;;;;;;7.35;2.30;;;21.60;95.40;;;;;;5059054;28;20036;-69
2021/07/29 08:44:13;;;;;;;9.93;1.92;;;21.60;94.70;;;;;;5060623;28;20621;-69
2021/07/29 08:46:44;;;;;;;11.65;2.28;;;21.70;95.30;;;;;;5061936;28;20043;-69
2021/07/29 08:49:10;;;;;;;8.35;1.80;;;21.80;95.60;;;;;;5061871;28;20043;-69
2021/07/29 08:51:38;;;;;;;6.35;1.48;;;21.60;94.90;;;;;;5060575;28;20513;-70
2021/07/29 08:54:12;;;;;;;12.02;2.35;;;21.30;95.00;;;;;;5062994;28;20029;-69
2021/07/29 08:56:38;;;;;;;4.57;1.40;;;21.30;96.20;;;;;;5060702;28;20067;-69
2021/07/29 08:59:07;;;;;;;5.40;1.95;;;21.40;96.30;;;;;;5059227;28;20545;-69
2021/07/29 09:01:49;;;;;;;8.82;1.40;;;21.50;95.00;;;;;;5058518;28;20127;-70
2021/07/29 09:04:15;;;;;;;5.97;1.85;;;21.40;95.00;;;;;;5061463;28;20048;-70
2021/07/29 09:07:00;;;;;;;5.88;2.22;;;21.30;95.90;;;;;;5061891;28;20035;-70
2021/07/29 09:09:42;;;;;;;6.95;2.22;;;21.10;93.80;;;;;;5062523;28;20045;-70
2021/07/29 09:12:24;;;;;;;9.20;2.30;;;20.80;96.50;;;;;;5060962;28;20052;-70
2021/07/29 09:14:51;;;;;;;20.70;3.80;;;20.60;96.60;;;;;;5057285;28;20119;-70
2021/07/29 09:17:18;;;;;;;11.13;2.10;;;20.30;96.60;;;;;;5060944;28;20510;-71
2021/07/29 09:19:48;;;;;;;7.88;2.00;;;20.10;97.30;;;;;;5061066;28;20649;-71
2021/07/29 09:22:21;;;;;;;5.28;1.73;;;20.00;98.50;;;;;;5064134;28;20072;-71
2021/07/29 09:25:07;;;;;;;11.15;1.77;;;20.10;99.40;;;;;;5065082;28;20071;-71
2021/07/29 09:27:39;;;;;;;9.27;1.63;;;20.40;98.90;;;;;;5063548;28;20390;-71
2021/07/29 09:30:22;;;;;;;7.55;1.80;;;20.50;97.50;;;;;;5062747;28;20041;-70
2021/07/29 09:33:00;;;;;;;9.02;1.70;;;20.50;97.40;;;;;;5064164;28;20041;-71
2021/07/29 09:35:28;;;;;;;14.00;2.10;;;20.40;97.90;;;;;;5062662;28;20094;-71
2021/07/29 09:37:54;;;;;;;13.02;2.83;;;20.50;98.20;;;;;;5062465;28;20048;-74
2021/07/29 09:40:20;;;;;;;9.43;1.75;;;20.40;97.20;;;;;;5065539;28;20106;-74
2021/07/29 09:43:07;;;;;;;11.90;2.17;;;20.40;97.40;;;;;;5060429;28;20040;-74
2021/07/29 09:45:32;;;;;;;8.45;1.83;;;20.40;97.20;;;;;;5063659;28;20574;-75
2021/07/29 09:47:59;;;;;;;8.55;1.92;;;20.80;97.40;;;;;;5062772;28;20127;-75
2021/07/29 09:50:25;;;;;;;6.00;2.05;;;21.00;95.90;;;;;;5061264;28;20040;-74
2021/07/29 09:52:53;;;;;;;5.68;1.42;;;20.80;94.10;;;;;;5062767;28;20119;-75
2021/07/29 09:55:21;;;;;;;6.72;1.50;;;20.60;93.70;;;;;;5064303;28;20048;-81
2021/07/29 09:57:47;;;;;;;7.15;1.52;;;20.30;94.50;;;;;;5062987;28;20043;-81
2021/07/29 10:00:13;;;;;;;6.47;1.42;;;20.10;94.80;;;;;;5064372;28;20414;-82
2021/07/29 10:02:41;;;;;;;6.95;1.02;;;19.90;95.30;;;;;;5062892;28;20607;-82
2021/07/29 10:05:09;;;;;;;9.88;1.52;;;19.60;95.10;;;;;;5061390;28;20077;-79
2021/07/29 10:07:39;;;;;;;15.65;1.88;;;19.40;95.00;;;;;;5062128;28;20750;-78
2021/07/29 10:10:07;;;;;;;10.30;1.63;;;19.40;95.90;;;;;;5064914;28;20044;-75
2021/07/29 10:12:33;;;;;;;6.95;1.63;;;19.50;97.00;;;;;;5063223;28;20123;-74
2021/07/29 10:15:00;;;;;;;6.57;1.80;;;19.70;97.60;;;;;;5061094;28;20052;-74
2021/07/29 10:17:35;;;;;;;8.23;1.60;;;19.70;97.90;;;;;;5062225;28;20090;-75
2021/07/29 10:20:20;;;;;;;5.47;1.50;;;19.60;95.90;;;;;;5064983;28;20040;-75
2021/07/29 10:22:48;;;;;;;5.87;1.63;;;19.60;95.20;;;;;;5065948;28;20036;-75
2021/07/29 10:25:14;;;;;;;5.88;1.10;;;19.90;96.30;;;;;;5066900;28;20098;-75
2021/07/29 10:27:41;;;;;;;7.68;1.20;;;20.30;96.70;;;;;;5069676;28;20040;-73
2021/07/29 10:30:18;;;;;;;11.30;1.20;;;20.40;95.30;;;;;;5067993;28;20040;-76
2021/07/29 10:32:50;;;;;;;7.68;1.35;;;20.60;94.20;;;;;;5067099;28;20141;-75
2021/07/29 10:35:36;;;;;;;10.63;1.38;;;20.70;94.90;;;;;;5065996;28;20054;-75
2021/07/29 10:38:02;;;;;;;8.85;1.50;;;20.50;94.70;;;;;;5065865;28;20082;-76
2021/07/29 10:40:38;;;;;;;5.40;1.42;;;20.20;94.10;;;;;;5063126;28;20075;-76
2021/07/29 10:43:23;;;;;;;3.95;0.95;;;20.40;95.60;;;;;;5065070;28;20036;-75
2021/07/29 10:45:49;;;;;;;9.43;1.63;;;20.60;96.20;;;;;;5069018;28;20040;-75
2021/07/29 10:51:18;;;;;;;15.95;1.55;;;20.40;96.10;;;;;;5068981;28;20032;-77
2021/07/29 10:53:46;;;;;;;16.20;2.03;;;20.20;95.00;;;;;;5066228;28;20033;-76
2021/07/29 10:56:13;;;;;;;6.50;1.83;;;20.00;95.40;;;;;;5066741;28;20115;-76
2021/07/29 10:58:42;;;;;;;5.32;1.60;;;19.80;96.60;;;;;;5066039;28;20042;-76
2021/07/29 11:01:10;;;;;;;7.63;2.13;;;19.70;97.00;;;;;;5061998;28;20059;-77
2021/07/29 11:03:49;;;;;;;7.97;1.63;;;19.60;97.10;;;;;;5066728;28;20062;-77
2021/07/29 11:06:40;;;;;;;7.95;2.35;;;19.60;96.30;;;;;;5067816;28;20041;-77
2021/07/29 11:09:16;;;;;;;5.30;1.52;;;19.70;97.50;;;;;;5067041;28;20036;-77
2021/07/29 11:11:49;;;;;;;6.78;1.60;;;19.90;98.30;;;;;;5065904;28;20032;-77
2021/07/29 11:14:21;;;;;;;7.25;1.55;;;20.00;98.20;;;;;;5064541;28;20044;-77
2021/07/29 11:16:49;;;;;;;8.90;1.52;;;19.90;98.00;;;;;;5064793;28;20040;-76
2021/07/29 11:19:15;;;;;;;12.82;1.50;;;19.70;96.70;;;;;;5063593;28;20097;-73
2021/07/29 11:21:44;;;;;;;9.45;2.30;;;19.60;97.30;;;;;;5066272;28;20029;-72
2021/07/29 11:24:24;;;;;;;9.32;1.67;;;19.50;97.60;;;;;;5064214;28;20083;-73
2021/07/29 11:26:51;;;;;;;6.60;1.55;;;19.60;98.40;;;;;;5065003;28;20687;-73
2021/07/29 11:29:17;;;;;;;6.25;1.77;;;19.70;98.20;;;;;;5063867;28;20048;-73
2021/07/29 11:31:43;;;;;;;14.00;2.10;;;19.70;97.60;;;;;;5067609;28;20033;-73
2021/07/29 11:34:09;;;;;;;9.55;1.67;;;19.70;98.30;;;;;;5063942;28;20153;-73
2021/07/29 11:36:35;;;;;;;6.15;1.60;;;19.80;99.60;;;;;;5065078;28;20067;-73
2021/07/29 11:39:08;;;;;;;11.30;1.70;;;20.00;99.10;;;;;;5064293;28;20039;-73
2021/07/29 11:42:09;;;;;;;8.45;2.35;;;20.10;96.60;;;;;;5065289;28;20110;-73
2021/07/29 11:44:38;;;;;;;8.52;1.70;;;20.20;97.10;;;;;;5024054;28;20049;-73
2021/07/29 11:47:04;;;;;;;8.65;1.75;;;20.10;95.10;;;;;;5059701;28;20050;-73
2021/07/29 11:49:30;;;;;;;6.78;1.70;;;19.80;96.60;;;;;;5065623;28;20037;-74
2021/07/29 11:52:07;;;;;;;9.70;1.60;;;19.80;98.80;;;;;;5065820;28;20041;-74
2021/07/29 11:54:34;;;;;;;5.70;1.58;;;19.60;98.80;;;;;;5067144;28;20105;-73
2021/07/29 11:57:00;;;;;;;5.15;1.45;;;19.50;99.50;;;;;;5066062;28;20040;-73
2021/07/29 11:59:33;;;;;;;4.47;1.60;;;19.40;99.90;;;;;;5066886;28;20048;-74
2021/07/29 12:02:00;;;;;;;6.60;1.70;;;19.50;99.90;;;;;;5065874;28;20047;-73
2021/07/29 12:04:27;;;;;;;5.32;1.67;;;19.70;99.90;;;;;;5067647;28;20037;-73
2021/07/29 12:06:53;;;;;;;5.85;2.05;;;20.00;98.20;;;;;;5067417;28;20041;-74
2021/07/29 12:09:21;;;;;;;7.30;2.10;;;20.20;98.70;;;;;;5067966;28;20048;-74
2021/07/29 12:11:47;;;;;;;11.25;2.00;;;20.40;98.30;;;;;;5065231;28;20037;-78
2021/07/29 12:14:13;;;;;;;10.23;2.25;;;20.30;96.30;;;;;;5066418;28;20068;-79
2021/07/29 12:16:50;;;;;;;7.50;1.50;;;20.30;97.30;;;;;;5066912;28;20124;-81
2021/07/29 12:19:17;;;;;;;14.48;1.45;;;20.30;97.90;;;;;;5065552;28;20067;-70
2021/07/29 12:21:43;;;;;;;8.95;1.60;;;20.30;97.30;;;;;;5065199;28;20040;-71
2021/07/29 12:24:09;;;;;;;10.73;2.53;;;20.30;98.70;;;;;;5065476;28;20444;-71
2021/07/29 12:26:35;;;;;;;11.57;2.38;;;20.40;99.10;;;;;;5065480;28;20040;-84
2021/07/29 12:29:02;;;;;;;19.75;2.63;;;20.40;98.10;;;;;;5066573;28;20574;-73
2021/07/29 12:31:29;;;;;;;13.02;2.03;;;20.50;96.10;;;;;;5065680;28;20040;-73
2021/07/29 12:34:01;;;;;;;4.82;1.70;;;20.50;94.80;;;;;;5065177;28;20537;-72
2021/07/29 12:36:53;;;;;;;11.65;2.38;;;20.50;95.20;;;;;;5063223;28;20483;-71
2021/07/29 12:39:31;;;;;;;10.18;1.60;;;20.70;95.20;;;;;;5063633;28;20220;-74
2021/07/29 12:41:57;;;;;;;10.77;1.88;;;20.90;94.30;;;;;;5065486;28;20045;-74
2021/07/29 12:44:23;;;;;;;28.65;2.20;;;21.10;94.80;;;;;;5067473;28;20639;-75
2021/07/29 12:46:49;;;;;;;10.43;1.40;;;21.20;94.00;;;;;;5064924;28;20055;-74
2021/07/29 12:49:16;;;;;;;12.18;1.42;;;21.40;95.10;;;;;;5067460;28;20060;-75
2021/07/29 12:51:47;;;;;;;7.95;2.00;;;21.40;91.80;;;;;;5066364;28;20048;-76
2021/07/29 12:54:18;;;;;;;8.80;1.25;;;21.50;93.90;;;;;;5069710;28;20177;-82